Time;durP1;ratioP1;P1;durP2;ratioP2;P2;SDS_P1;SDS_P2;PMS_P1;PMS_P2;Temp;Humidity;BMP_temperature;BMP_pressure;BME280_temperature;BME280_humidity;BME280_pressure;Samples;Min_cycle;Max_cycle;Signal;HPM_P1;HPM_P2
2022/12/17 13:07:25;;;;;;;9.77;8.82;;;16.90;48.00;;;;;;4987318;28;20261;-66
2022/12/17 13:09:55;;;;;;;9.57;8.68;;;16.90;48.00;;;;;;4973274;28;20198;-67
2022/12/17 13:12:31;;;;;;;9.30;8.40;;;16.90;48.00;;;;;;4957919;29;20205;-66
2022/12/17 13:15:06;;;;;;;10.15;9.15;;;16.90;48.00;;;;;;4957280;28;20214;-67
2022/12/17 13:17:58;;;;;;;8.75;7.90;;;16.90;48.00;;;;;;4989258;28;20182;-67
2022/12/17 13:20:33;;;;;;;9.15;8.35;;;16.90;48.00;;;;;;4989987;28;20235;-67
2022/12/17 13:23:08;;;;;;;9.18;8.38;;;16.90;48.00;;;;;;4957423;28;20200;-66
2022/12/17 13:25:34;;;;;;;8.80;7.97;;;16.90;48.10;;;;;;4956018;28;20214;-66
2022/12/17 13:28:00;;;;;;;8.50;7.70;;;16.90;48.10;;;;;;4972567;28;20202;-66
2022/12/17 13:30:37;;;;;;;8.45;7.65;;;16.90;48.10;;;;;;4988784;28;20190;-67
2022/12/17 13:33:52;;;;;;;8.93;8.02;;;16.90;48.10;;;;;;4988150;28;20186;-67
2022/12/17 13:36:59;;;;;;;8.68;7.88;;;16.90;48.10;;;;;;4988004;28;20194;-65
2022/12/17 13:39:41;;;;;;;8.32;7.57;;;16.90;48.00;;;;;;4939288;29;20270;-66
2022/12/17 13:42:31;;;;;;;7.93;7.13;;;16.90;48.10;;;;;;4969526;28;20194;-66
2022/12/17 13:44:58;;;;;;;8.52;7.72;;;16.90;48.10;;;;;;4971121;28;20206;-67
2022/12/17 13:47:34;;;;;;;8.50;7.68;;;16.90;48.10;;;;;;4971507;28;20233;-66
2022/12/17 13:50:17;;;;;;;8.65;7.85;;;16.90;48.10;;;;;;4981457;28;20198;-67
2022/12/17 13:52:42;;;;;;;8.63;7.72;;;16.90;48.10;;;;;;4971858;28;20218;-66
2022/12/17 13:55:19;;;;;;;8.38;7.47;;;16.90;48.10;;;;;;4971806;28;20238;-66
2022/12/17 13:57:47;;;;;;;8.15;7.40;;;16.90;48.10;;;;;;4957465;28;20190;-66
2022/12/17 14:00:20;;;;;;;8.32;7.53;;;16.90;48.10;;;;;;4988256;28;20243;-68
2022/12/17 14:02:46;;;;;;;8.80;7.72;;;16.90;48.10;;;;;;4956435;28;20272;-66
2022/12/17 14:05:36;;;;;;;8.07;7.28;;;16.90;48.10;;;;;;4954990;28;20264;-67
2022/12/17 14:08:04;;;;;;;8.00;7.20;;;16.90;48.20;;;;;;4970597;28;20201;-67
2022/12/17 14:10:31;;;;;;;7.47;6.78;;;16.90;48.10;;;;;;4987873;28;20209;-66
2022/12/17 14:13:12;;;;;;;8.40;7.60;;;16.90;48.10;;;;;;4971145;28;20281;-67
2022/12/17 14:15:47;;;;;;;8.43;7.47;;;16.90;48.10;;;;;;4971294;28;20206;-66
2022/12/17 14:18:17;;;;;;;9.18;8.20;;;16.90;48.10;;;;;;4970859;28;20212;-66
2022/12/17 14:20:44;;;;;;;8.95;7.97;;;16.90;48.00;;;;;;4987224;28;20191;-66
2022/12/17 14:23:25;;;;;;;9.05;8.15;;;16.90;48.10;;;;;;4949178;29;20267;-66
2022/12/17 14:25:51;;;;;;;10.10;8.45;;;16.90;48.10;;;;;;4955890;28;20202;-66
2022/12/17 14:28:24;;;;;;;8.85;7.93;;;16.90;48.10;;;;;;4953929;28;20198;-67
2022/12/17 14:30:50;;;;;;;8.70;7.90;;;16.90;48.20;;;;;;4938463;29;20197;-66
2022/12/17 14:33:31;;;;;;;9.13;7.90;;;16.90;48.20;;;;;;4986844;28;20689;-66
2022/12/17 14:36:28;;;;;;;8.50;7.60;;;16.90;48.10;;;;;;4969478;28;20600;-66
2022/12/17 14:39:01;;;;;;;10.43;8.60;;;16.90;48.20;;;;;;4948220;29;20233;-66
2022/12/17 14:44:26;;;;;;;8.43;7.53;;;16.90;48.10;;;;;;4957305;28;20221;-67
2022/12/17 14:47:27;;;;;;;9.27;7.30;;;16.90;48.20;;;;;;4956254;28;20229;-66
2022/12/17 14:50:03;;;;;;;8.48;7.68;;;16.90;48.20;;;;;;4935702;29;20198;-65
2022/12/17 14:52:41;;;;;;;8.95;8.05;;;16.90;48.20;;;;;;4950987;29;20232;-66
2022/12/17 14:55:28;;;;;;;9.80;8.00;;;16.90;48.20;;;;;;4952444;28;20724;-66
2022/12/17 14:58:08;;;;;;;8.88;7.97;;;16.90;48.20;;;;;;4970014;28;20183;-66
2022/12/17 15:00:42;;;;;;;8.80;7.90;;;16.90;48.20;;;;;;4954266;29;20188;-66
2022/12/17 15:03:23;;;;;;;8.90;7.82;;;16.90;48.20;;;;;;4954841;29;20280;-67
2022/12/17 15:05:57;;;;;;;8.05;7.35;;;16.90;48.20;;;;;;4987796;28;20210;-66
2022/12/17 15:08:23;;;;;;;8.23;7.43;;;16.90;48.20;;;;;;4973446;28;20249;-66
2022/12/17 15:10:49;;;;;;;8.98;8.07;;;16.90;48.20;;;;;;4972407;28;20214;-67
2022/12/17 15:13:15;;;;;;;8.32;7.53;;;16.90;48.20;;;;;;4971939;28;20253;-67
2022/12/17 15:15:41;;;;;;;9.05;8.15;;;16.90;48.20;;;;;;4970037;28;20221;-66
2022/12/17 15:18:07;;;;;;;8.52;7.63;;;16.90;48.10;;;;;;4987904;28;20237;-67
2022/12/17 15:20:32;;;;;;;8.65;7.75;;;16.90;48.20;;;;;;4970852;28;20202;-67
2022/12/17 15:23:00;;;;;;;8.75;7.63;;;16.90;48.10;;;;;;4986201;28;20206;-66
2022/12/17 15:25:26;;;;;;;8.60;7.57;;;16.90;48.10;;;;;;4969852;28;20316;-67
2022/12/17 15:27:52;;;;;;;7.82;7.05;;;16.90;48.10;;;;;;4954829;28;20277;-67
2022/12/17 15:30:18;;;;;;;8.30;7.45;;;16.90;48.10;;;;;;4985268;28;20190;-66
2022/12/17 15:32:45;;;;;;;8.73;7.90;;;16.90;48.00;;;;;;4953788;29;20244;-67
2022/12/17 15:35:12;;;;;;;7.78;7.05;;;16.90;48.00;;;;;;4953087;28;20218;-67
2022/12/17 15:37:39;;;;;;;8.65;7.72;;;16.90;48.00;;;;;;4985934;28;20186;-66
2022/12/17 15:40:06;;;;;;;9.95;8.80;;;16.90;48.00;;;;;;4969798;28;20198;-67
2022/12/17 15:45:16;;;;;;;8.70;7.80;;;16.90;48.00;;;;;;4954601;28;20284;-67
2022/12/17 15:47:42;;;;;;;9.07;8.18;;;16.90;48.10;;;;;;4969376;28;20187;-66
2022/12/17 15:50:08;;;;;;;8.07;7.38;;;16.90;48.00;;;;;;4985728;28;20190;-67
2022/12/17 15:52:34;;;;;;;8.23;7.43;;;16.90;48.00;;;;;;4985906;28;20228;-67
2022/12/17 15:54:59;;;;;;;10.07;8.48;;;16.90;48.00;;;;;;4985530;28;20216;-67
2022/12/17 15:57:25;;;;;;;9.07;8.15;;;16.90;48.00;;;;;;4985366;28;20190;-67
2022/12/17 15:59:51;;;;;;;8.88;7.97;;;16.90;48.00;;;;;;4953433;29;20197;-67
2022/12/17 16:02:17;;;;;;;9.00;8.07;;;16.90;48.00;;;;;;4968671;28;20190;-67
2022/12/17 16:04:42;;;;;;;8.20;7.30;;;16.90;48.00;;;;;;5005684;23;20228;-68
2022/12/17 16:07:08;;;;;;;9.30;8.40;;;16.90;47.90;;;;;;5011204;28;20199;-69
2022/12/17 16:09:34;;;;;;;9.43;8.52;;;16.80;47.90;;;;;;5018288;28;20192;-69
2022/12/17 16:12:00;;;;;;;9.70;8.70;;;16.90;47.90;;;;;;4994737;28;20335;-69
2022/12/17 16:14:25;;;;;;;9.63;8.73;;;16.90;47.90;;;;;;5024734;28;20209;-68
2022/12/17 16:16:51;;;;;;;9.85;8.95;;;16.90;47.90;;;;;;4992729;28;20177;-68
2022/12/17 16:19:20;;;;;;;9.55;8.65;;;16.80;47.80;;;;;;4991660;28;20184;-69
2022/12/17 16:21:47;;;;;;;9.98;8.98;;;16.90;47.90;;;;;;4975810;28;20193;-69
2022/12/17 16:24:13;;;;;;;10.50;9.32;;;16.90;47.90;;;;;;4992816;28;20204;-69
2022/12/17 16:26:38;;;;;;;10.48;9.38;;;16.90;47.90;;;;;;5008860;28;20205;-70
2022/12/17 16:29:05;;;;;;;9.30;8.40;;;16.90;47.90;;;;;;4998202;28;20297;-70
2022/12/17 16:31:31;;;;;;;10.25;9.25;;;16.90;47.90;;;;;;5012034;28;20184;-70
2022/12/17 16:33:57;;;;;;;10.88;9.30;;;16.80;47.80;;;;;;4996419;28;20173;-70
2022/12/17 16:36:23;;;;;;;9.35;8.45;;;16.80;47.80;;;;;;4995066;28;20212;-70
2022/12/17 16:38:52;;;;;;;9.43;8.43;;;16.80;47.80;;;;;;5014101;28;20287;-70
2022/12/17 16:41:20;;;;;;;9.50;8.57;;;16.80;47.80;;;;;;4993918;28;20231;-69
2022/12/17 16:43:46;;;;;;;9.40;8.45;;;16.80;47.80;;;;;;5002273;28;20246;-69
2022/12/17 16:46:40;;;;;;;9.48;8.55;;;16.80;47.70;;;;;;5015008;28;20204;-69
2022/12/17 16:49:12;;;;;;;10.45;9.32;;;16.80;47.70;;;;;;4983007;28;20625;-70
2022/12/17 16:51:39;;;;;;;10.30;9.30;;;16.90;47.80;;;;;;4984043;28;20264;-70
2022/12/17 16:54:14;;;;;;;10.13;9.13;;;16.80;47.60;;;;;;4985344;28;20213;-71
2022/12/17 16:56:41;;;;;;;9.90;8.90;;;16.80;47.70;;;;;;5002294;28;20259;-71
2022/12/17 16:59:09;;;;;;;10.80;9.70;;;16.80;47.70;;;;;;4997401;28;20189;-71
2022/12/17 17:01:37;;;;;;;9.60;8.50;;;16.90;48.10;;;;;;5001997;28;20185;-71
2022/12/17 17:04:05;;;;;;;11.05;9.82;;;16.90;48.00;;;;;;4984494;28;20223;-71
2022/12/17 17:06:31;;;;;;;9.75;7.93;;;16.90;48.60;;;;;;5014432;28;20221;-70
2022/12/17 17:08:56;;;;;;;8.57;6.53;;;17.10;54.90;;;;;;4999822;28;20196;-70
2022/12/17 17:11:24;;;;;;;10.90;7.07;;;17.30;56.80;;;;;;4999898;28;20185;-70
2022/12/17 17:13:53;;;;;;;9.75;6.60;;;17.50;57.70;;;;;;5002222;28;20227;-70
2022/12/17 17:16:22;;;;;;;10.82;6.95;;;17.50;57.80;;;;;;4983634;28;20192;-70
2022/12/17 17:18:52;;;;;;;12.82;6.40;;;17.60;58.10;;;;;;4984316;28;20215;-70
2022/12/17 17:21:18;;;;;;;9.00;6.70;;;17.60;58.20;;;;;;5001036;28;20261;-70
2022/12/17 17:23:45;;;;;;;8.65;6.30;;;17.70;58.40;;;;;;5018865;28;20220;-70
2022/12/17 17:26:12;;;;;;;7.82;5.97;;;17.70;58.50;;;;;;5000626;28;20231;-71
2022/12/17 17:28:39;;;;;;;8.15;5.97;;;17.70;58.70;;;;;;4985977;28;20199;-70
2022/12/17 17:31:10;;;;;;;6.97;6.18;;;17.70;58.70;;;;;;5001811;28;20189;-70
2022/12/17 17:33:41;;;;;;;7.32;6.25;;;17.80;58.90;;;;;;5003524;28;20276;-70
2022/12/17 17:36:11;;;;;;;7.63;6.45;;;17.80;58.80;;;;;;4998937;28;20662;-69
2022/12/17 17:38:39;;;;;;;7.30;6.38;;;17.80;58.80;;;;;;4995812;28;20181;-71
2022/12/17 17:41:08;;;;;;;9.15;6.38;;;17.80;58.80;;;;;;5017948;28;20289;-70
2022/12/17 17:43:34;;;;;;;10.27;6.55;;;17.80;58.80;;;;;;4994078;28;20212;-70
2022/12/17 17:46:11;;;;;;;8.88;6.95;;;17.80;58.80;;;;;;5017410;28;20219;-70
2022/12/17 17:48:37;;;;;;;8.38;7.00;;;17.80;58.80;;;;;;5002320;28;20188;-71
2022/12/17 17:51:28;;;;;;;7.80;6.45;;;17.80;58.80;;;;;;5000912;28;20181;-70
2022/12/17 17:53:55;;;;;;;8.15;6.43;;;17.90;59.00;;;;;;4998953;28;20185;-70
2022/12/17 17:56:26;;;;;;;8.45;6.35;;;17.90;59.30;;;;;;4998768;28;20185;-70
2022/12/17 17:59:07;;;;;;;8.88;6.65;;;17.90;59.20;;;;;;5013269;28;20177;-70
2022/12/17 18:01:39;;;;;;;7.78;6.25;;;17.90;59.40;;;;;;4999753;28;20687;-70
2022/12/17 18:04:08;;;;;;;9.35;6.95;;;17.90;59.40;;;;;;5002992;28;20174;-70
2022/12/17 18:06:40;;;;;;;8.93;7.20;;;17.90;59.50;;;;;;5001461;28;20213;-70
2022/12/17 18:09:07;;;;;;;8.65;6.50;;;18.00;59.70;;;;;;4985798;28;20224;-70
2022/12/17 18:11:36;;;;;;;7.72;6.90;;;18.00;59.60;;;;;;5000168;28;20177;-70
2022/12/17 18:14:04;;;;;;;9.77;7.35;;;18.00;59.60;;;;;;4990257;28;20189;-70
2022/12/17 18:16:35;;;;;;;7.15;6.43;;;18.00;59.50;;;;;;5015399;28;20577;-70
2022/12/17 18:19:06;;;;;;;12.20;6.53;;;18.00;59.40;;;;;;4983378;28;20307;-70
2022/12/17 18:21:33;;;;;;;7.65;6.30;;;18.00;59.70;;;;;;5000553;28;20185;-70
2022/12/17 18:24:06;;;;;;;9.07;6.00;;;18.00;59.70;;;;;;5017919;28;20257;-70
2022/12/17 18:26:36;;;;;;;8.45;6.15;;;18.00;59.70;;;;;;4979251;28;20229;-70
2022/12/17 18:29:25;;;;;;;7.05;6.30;;;18.00;59.60;;;;;;5016096;28;20193;-70
2022/12/17 18:31:51;;;;;;;8.35;5.80;;;18.00;59.70;;;;;;5001442;28;20180;-70
2022/12/17 18:34:21;;;;;;;7.35;6.60;;;18.00;59.70;;;;;;4999322;28;20215;-70
2022/12/17 18:36:49;;;;;;;8.25;6.50;;;18.10;59.90;;;;;;4996698;28;20208;-70
2022/12/17 18:39:19;;;;;;;8.77;6.43;;;18.00;59.80;;;;;;4993498;28;20233;-69
2022/12/17 18:44:34;;;;;;;7.38;6.50;;;18.10;59.80;;;;;;4993681;28;20247;-69
2022/12/17 18:47:00;;;;;;;9.13;6.63;;;18.10;59.70;;;;;;4994538;28;20223;-70
2022/12/17 18:49:26;;;;;;;7.03;6.38;;;18.10;59.70;;;;;;4977520;28;20193;-70
2022/12/17 18:51:53;;;;;;;6.97;6.28;;;18.10;59.80;;;;;;4993284;28;20184;-70
2022/12/17 18:54:25;;;;;;;9.73;7.07;;;18.10;59.90;;;;;;4993498;28;20224;-70
2022/12/17 18:56:53;;;;;;;9.07;6.30;;;18.10;59.90;;;;;;4977342;28;20567;-70
2022/12/17 18:59:21;;;;;;;10.00;5.85;;;18.10;59.90;;;;;;4993731;28;20641;-69
2022/12/17 19:01:49;;;;;;;7.13;6.43;;;18.10;59.90;;;;;;4993086;28;20239;-70
2022/12/17 19:04:18;;;;;;;7.00;5.80;;;18.10;59.90;;;;;;5008428;28;20216;-70
2022/12/17 19:06:47;;;;;;;10.10;6.45;;;18.10;60.00;;;;;;4993311;28;20299;-69
2022/12/17 19:09:24;;;;;;;7.53;5.70;;;18.10;59.90;;;;;;4994577;28;20224;-70
2022/12/17 19:11:51;;;;;;;9.10;5.95;;;18.10;59.80;;;;;;4977008;28;20185;-69
2022/12/17 19:14:17;;;;;;;7.90;6.25;;;18.00;59.70;;;;;;5003206;28;20201;-72
2022/12/17 19:16:44;;;;;;;11.90;6.97;;;18.10;59.80;;;;;;5025932;28;20193;-69
2022/12/17 19:19:11;;;;;;;13.32;7.28;;;18.10;59.80;;;;;;5009326;28;20201;-70
2022/12/17 19:21:37;;;;;;;8.90;6.97;;;18.10;59.80;;;;;;5009657;28;20184;-73
2022/12/17 19:24:07;;;;;;;10.45;7.18;;;18.10;59.60;;;;;;4994162;28;20212;-69
2022/12/17 19:26:33;;;;;;;12.35;6.90;;;18.10;59.60;;;;;;5008849;28;20216;-69
2022/12/17 19:29:00;;;;;;;10.90;7.28;;;18.10;59.60;;;;;;5025926;28;20232;-69
2022/12/17 19:31:29;;;;;;;11.20;6.68;;;18.10;59.70;;;;;;5025576;28;20181;-69
2022/12/17 19:34:05;;;;;;;12.75;6.13;;;18.10;59.60;;;;;;4992755;28;20180;-70
2022/12/17 19:36:34;;;;;;;13.90;5.82;;;18.00;59.70;;;;;;5008908;28;20173;-69
2022/12/17 19:39:06;;;;;;;12.77;6.43;;;18.10;59.70;;;;;;5005562;28;20194;-69
2022/12/17 19:41:32;;;;;;;15.15;6.03;;;18.10;59.80;;;;;;4997111;28;20283;-69
2022/12/17 19:44:02;;;;;;;10.93;6.80;;;18.10;59.80;;;;;;4991849;28;20185;-68
2022/12/17 19:46:30;;;;;;;11.77;5.72;;;18.10;59.80;;;;;;5025057;28;20307;-68
2022/12/17 19:48:56;;;;;;;12.77;6.60;;;18.10;59.90;;;;;;5008534;28;20628;-68
2022/12/17 19:51:24;;;;;;;11.40;6.07;;;18.10;59.90;;;;;;5024796;28;20679;-69
2022/12/17 19:53:50;;;;;;;11.60;5.90;;;18.10;59.90;;;;;;5008522;28;20196;-68
2022/12/17 19:56:29;;;;;;;8.77;6.38;;;18.10;59.90;;;;;;5007998;28;20189;-68
2022/12/17 19:59:01;;;;;;;12.80;6.68;;;18.20;59.90;;;;;;4991901;28;20189;-68
2022/12/17 20:01:34;;;;;;;8.07;5.85;;;18.10;59.80;;;;;;4993175;28;20795;-69
2022/12/17 20:04:00;;;;;;;9.05;6.05;;;18.20;59.90;;;;;;4975820;28;20192;-69
2022/12/17 20:06:30;;;;;;;13.15;7.10;;;18.10;59.80;;;;;;4975912;28;20204;-68
2022/12/17 20:09:01;;;;;;;10.93;6.55;;;18.10;59.70;;;;;;4993243;28;20173;-69
2022/12/17 20:11:33;;;;;;;10.52;6.07;;;18.10;59.80;;;;;;4991872;28;20216;-69
2022/12/17 20:14:20;;;;;;;10.55;6.10;;;18.10;59.80;;;;;;5008305;28;20187;-69
2022/12/17 20:16:56;;;;;;;9.07;6.47;;;18.10;59.80;;;;;;4991300;28;20649;-68
2022/12/17 20:19:29;;;;;;;8.52;5.70;;;18.10;59.90;;;;;;4991823;28;20188;-69
2022/12/17 20:21:57;;;;;;;12.25;7.10;;;18.20;59.90;;;;;;5008351;28;20185;-68
2022/12/17 20:24:23;;;;;;;11.48;6.70;;;18.10;59.90;;;;;;5008122;28;20692;-68
2022/12/17 20:26:51;;;;;;;9.55;6.60;;;18.10;59.80;;;;;;4991690;28;20219;-68
2022/12/17 20:29:22;;;;;;;8.52;6.50;;;18.20;59.80;;;;;;5008409;28;20189;-68
2022/12/17 20:31:50;;;;;;;11.85;6.72;;;18.20;59.90;;;;;;4975556;28;20180;-69
2022/12/17 20:34:21;;;;;;;12.70;6.28;;;18.20;59.80;;;;;;5008363;28;20235;-69
2022/12/17 20:36:47;;;;;;;11.40;6.10;;;18.10;59.80;;;;;;4992600;28;20173;-69
2022/12/17 20:39:13;;;;;;;8.00;5.88;;;18.20;59.70;;;;;;4991105;28;20184;-69
2022/12/17 20:41:39;;;;;;;11.30;6.80;;;18.10;59.60;;;;;;4972104;28;20252;-69
2022/12/17 20:44:12;;;;;;;9.35;6.45;;;18.10;59.70;;;;;;4992508;28;20284;-68
2022/12/17 20:46:39;;;;;;;7.40;5.65;;;18.10;59.80;;;;;;5007758;28;20204;-69
2022/12/17 20:49:07;;;;;;;9.73;6.63;;;18.20;59.80;;;;;;5024171;28;20217;-69
2022/12/17 20:51:34;;;;;;;7.47;6.18;;;18.10;59.80;;;;;;5024067;28;20184;-68
2022/12/17 20:54:01;;;;;;;7.97;5.90;;;18.20;59.80;;;;;;4991292;28;20189;-69
2022/12/17 20:56:32;;;;;;;7.10;5.32;;;18.20;59.90;;;;;;5024564;28;20189;-68
2022/12/17 20:59:03;;;;;;;7.35;5.95;;;18.10;59.80;;;;;;5024352;28;20177;-69
2022/12/17 21:01:32;;;;;;;6.53;5.63;;;18.20;59.80;;;;;;5012228;28;20197;-69
2022/12/17 21:03:59;;;;;;;8.70;5.63;;;18.10;59.40;;;;;;4991251;28;20205;-68
2022/12/17 21:06:34;;;;;;;8.30;6.20;;;17.90;59.10;;;;;;4991142;28;20241;-69
2022/12/17 21:09:00;;;;;;;6.90;6.07;;;17.80;59.10;;;;;;5024529;28;20212;-68
2022/12/17 21:11:30;;;;;;;9.07;5.95;;;17.70;59.00;;;;;;4991194;28;20189;-69
2022/12/17 21:13:56;;;;;;;10.20;6.43;;;17.70;58.90;;;;;;5007224;28;20197;-68
2022/12/17 21:16:26;;;;;;;8.55;5.82;;;17.70;58.90;;;;;;5007665;28;20185;-69
2022/12/17 21:18:55;;;;;;;7.47;6.35;;;17.60;58.60;;;;;;4990375;28;20566;-69
2022/12/17 21:21:25;;;;;;;11.52;6.85;;;17.60;58.70;;;;;;5023644;28;20189;-68
2022/12/17 21:23:52;;;;;;;7.25;6.38;;;17.50;58.40;;;;;;4991194;28;20673;-68
2022/12/17 21:26:25;;;;;;;9.55;6.30;;;17.50;58.50;;;;;;5007369;28;20248;-68
2022/12/17 21:28:59;;;;;;;7.65;6.57;;;17.50;58.20;;;;;;4978070;28;20199;-68
2022/12/17 21:31:32;;;;;;;9.82;7.25;;;17.50;58.10;;;;;;4995967;28;20183;-68
2022/12/17 21:34:04;;;;;;;9.80;7.00;;;17.50;58.00;;;;;;4994892;28;20177;-68
2022/12/17 21:36:32;;;;;;;7.22;6.47;;;17.50;57.80;;;;;;4994823;28;20200;-67
2022/12/17 21:38:59;;;;;;;6.93;5.97;;;17.50;57.70;;;;;;4994503;28;20280;-68
2022/12/17 21:41:32;;;;;;;7.80;6.70;;;17.40;57.50;;;;;;4971598;28;20212;-68
2022/12/17 21:44:01;;;;;;;9.80;6.97;;;17.40;57.40;;;;;;5010015;28;20640;-68
2022/12/17 21:46:29;;;;;;;8.18;6.57;;;17.50;57.40;;;;;;4995323;28;20216;-69
2022/12/17 21:48:57;;;;;;;9.57;6.82;;;17.40;57.30;;;;;;5009577;28;20236;-68
2022/12/17 21:51:23;;;;;;;8.93;6.90;;;17.40;57.20;;;;;;4978337;28;20192;-68
2022/12/17 21:53:55;;;;;;;10.63;7.28;;;17.40;57.00;;;;;;4995522;28;20212;-68
2022/12/17 21:56:22;;;;;;;8.10;7.05;;;17.40;57.10;;;;;;5010539;28;20196;-69
2022/12/17 21:58:49;;;;;;;8.65;6.85;;;17.40;56.80;;;;;;4994354;28;20192;-68
2022/12/17 22:01:21;;;;;;;8.90;6.88;;;17.40;56.80;;;;;;5010518;28;20181;-68
2022/12/17 22:03:48;;;;;;;9.65;7.65;;;17.40;56.70;;;;;;5010445;28;20176;-69
2022/12/17 22:06:19;;;;;;;8.50;7.60;;;17.40;56.60;;;;;;5017440;23;20239;-67
2022/12/17 22:08:46;;;;;;;10.27;6.75;;;17.30;56.40;;;;;;5013376;28;20188;-67
2022/12/17 22:11:15;;;;;;;7.22;6.53;;;17.30;56.40;;;;;;5013816;28;20184;-67
2022/12/17 22:14:01;;;;;;;9.93;7.35;;;17.30;56.20;;;;;;5013395;28;20184;-67
2022/12/17 22:16:41;;;;;;;8.82;7.07;;;17.30;56.20;;;;;;5013693;28;20208;-67
2022/12/17 22:19:22;;;;;;;8.80;7.10;;;17.30;56.10;;;;;;4986394;28;20200;-67
2022/12/17 22:21:49;;;;;;;8.57;7.03;;;17.30;56.10;;;;;;4993814;28;20183;-68
2022/12/17 22:24:20;;;;;;;10.32;7.60;;;17.30;56.00;;;;;;4993676;28;20184;-67
2022/12/17 22:26:47;;;;;;;8.85;7.15;;;17.30;55.90;;;;;;4993644;28;20205;-67
2022/12/17 22:32:58;;;;;;;9.60;7.50;;;17.30;55.90;;;;;;4993619;28;20203;-67
2022/12/17 22:34:45;;;;;;;9.02;7.70;;;17.30;55.80;;;;;;5009603;28;20215;-67
2022/12/17 22:37:11;;;;;;;8.57;7.45;;;17.30;55.60;;;;;;4994429;28;20189;-67
2022/12/17 22:39:37;;;;;;;8.52;7.60;;;17.30;55.60;;;;;;4993148;28;20219;-67
2022/12/17 22:44:47;;;;;;;11.93;6.97;;;17.30;55.40;;;;;;5009607;28;20258;-68
2022/12/17 22:47:12;;;;;;;7.78;6.97;;;17.30;55.40;;;;;;4977308;28;20213;-67
2022/12/17 22:49:38;;;;;;;9.30;7.57;;;17.30;55.40;;;;;;4993229;28;20189;-67
2022/12/17 22:52:04;;;;;;;9.68;7.43;;;17.20;55.20;;;;;;4993253;28;20189;-67
2022/12/17 22:54:30;;;;;;;8.30;6.68;;;17.30;55.30;;;;;;4977066;28;20231;-67
2022/12/17 22:56:55;;;;;;;8.02;7.22;;;17.30;55.20;;;;;;4993311;28;20211;-68
2022/12/17 22:59:21;;;;;;;10.18;7.70;;;17.30;55.20;;;;;;5004963;28;20184;-67
2022/12/17 23:01:47;;;;;;;9.57;7.70;;;17.20;55.00;;;;;;5012718;28;20176;-67
2022/12/17 23:04:15;;;;;;;10.23;7.55;;;17.20;54.90;;;;;;5013565;28;20200;-66
2022/12/17 23:06:44;;;;;;;9.20;8.10;;;17.20;54.90;;;;;;5012320;28;20204;-67
2022/12/17 23:09:11;;;;;;;8.82;7.13;;;17.20;54.80;;;;;;5012370;28;20172;-67
2022/12/17 23:11:36;;;;;;;7.97;7.03;;;17.20;54.70;;;;;;5009226;28;20177;-67
2022/12/17 23:14:05;;;;;;;8.25;7.03;;;17.20;54.80;;;;;;5009312;28;20180;-67
2022/12/17 23:16:31;;;;;;;8.32;7.05;;;17.20;54.70;;;;;;4992705;28;20208;-67
2022/12/17 23:19:00;;;;;;;8.88;7.13;;;17.20;54.70;;;;;;4992774;28;20196;-67
2022/12/17 23:21:26;;;;;;;8.48;6.97;;;17.20;54.60;;;;;;4993785;28;20271;-67
2022/12/17 23:23:54;;;;;;;8.70;7.07;;;17.20;54.60;;;;;;4992438;28;20283;-67
2022/12/17 23:26:31;;;;;;;8.23;7.00;;;17.20;54.60;;;;;;5008972;28;20217;-67
2022/12/17 23:29:01;;;;;;;9.35;7.47;;;17.20;54.50;;;;;;4992622;28;20185;-65
2022/12/17 23:31:33;;;;;;;9.38;7.63;;;17.20;54.40;;;;;;4999334;28;20168;-66
2022/12/17 23:33:59;;;;;;;8.82;7.60;;;17.20;54.40;;;;;;5008630;28;20644;-67
2022/12/17 23:36:26;;;;;;;8.15;7.32;;;17.10;54.20;;;;;;4992283;28;20270;-67
2022/12/17 23:38:54;;;;;;;9.07;7.38;;;17.20;54.20;;;;;;4992139;28;20319;-67
2022/12/17 23:41:25;;;;;;;8.82;7.72;;;17.20;54.20;;;;;;4992476;28;20189;-67
2022/12/17 23:43:52;;;;;;;8.32;7.50;;;17.20;54.20;;;;;;4993579;28;20238;-67
2022/12/17 23:46:19;;;;;;;9.13;7.80;;;17.20;54.20;;;;;;4992335;28;20263;-67
2022/12/17 23:48:47;;;;;;;8.27;7.20;;;17.20;54.10;;;;;;4992295;28;20188;-67
2022/12/17 23:51:15;;;;;;;8.90;8.00;;;17.20;54.00;;;;;;4991720;28;20185;-67
2022/12/17 23:53:42;;;;;;;8.77;7.72;;;17.20;53.90;;;;;;5008506;28;20185;-67
2022/12/17 23:56:22;;;;;;;9.48;7.20;;;17.20;53.90;;;;;;4993160;28;20205;-67
2022/12/17 23:58:56;;;;;;;8.00;7.20;;;17.20;53.90;;;;;;4993104;28;20173;-67
